sensor_id;sensor_type;location;lat;lon;timestamp;pressure;altitude;pressure_sealevel;temperature;humidity
22241;BME280;11289;52.524;13.694;2023-01-16T00:01:35;99426.84;;;3.66;75.42
22241;BME280;11289;52.524;13.694;2023-01-16T00:04:01;99431.22;;;3.68;75.11
22241;BME280;11289;52.524;13.694;2023-01-16T00:06:26;99430.72;;;3.65;75.50
22241;BME280;11289;52.524;13.694;2023-01-16T00:08:51;99388.44;;;3.44;75.16
22241;BME280;11289;52.524;13.694;2023-01-16T00:11:17;99423.31;;;3.66;75.14
22241;BME280;11289;52.524;13.694;2023-01-16T00:13:42;99388.63;;;3.47;75.36
22241;BME280;11289;52.524;13.694;2023-01-16T00:16:08;99416.97;;;3.65;74.85
22241;BME280;11289;52.524;13.694;2023-01-16T00:18:33;99414.75;;;3.68;75.34
22241;BME280;11289;52.524;13.694;2023-01-16T00:20:59;99409.06;;;3.64;75.73
22241;BME280;11289;52.524;13.694;2023-01-16T00:23:25;99406.84;;;3.66;75.49
22241;BME280;11289;52.524;13.694;2023-01-16T00:25:51;99413.13;;;3.66;75.44
22241;BME280;11289;52.524;13.694;2023-01-16T00:28:16;99404.38;;;3.64;75.74
22241;BME280;11289;52.524;13.694;2023-01-16T00:30:41;99417.34;;;3.73;75.80
22241;BME280;11289;52.524;13.694;2023-01-16T00:33:08;99408.78;;;3.74;75.24
22241;BME280;11289;52.524;13.694;2023-01-16T00:35:34;99413.50;;;3.74;75.50
22241;BME280;11289;52.524;13.694;2023-01-16T00:37:59;99397.66;;;3.71;75.49
22241;BME280;11289;52.524;13.694;2023-01-16T00:40:25;99407.38;;;3.77;75.07
22241;BME280;11289;52.524;13.694;2023-01-16T00:42:50;99425.19;;;3.88;75.19
22241;BME280;11289;52.524;13.694;2023-01-16T00:45:16;99420.19;;;3.90;75.00
22241;BME280;11289;52.524;13.694;2023-01-16T00:47:41;99418.88;;;3.88;74.81
22241;BME280;11289;52.524;13.694;2023-01-16T00:50:07;99425.69;;;3.90;74.95
22241;BME280;11289;52.524;13.694;2023-01-16T00:52:33;99432.00;;;3.91;75.20
22241;BME280;11289;52.524;13.694;2023-01-16T00:54:59;99434.75;;;3.91;74.47
22241;BME280;11289;52.524;13.694;2023-01-16T00:57:24;99442.84;;;3.96;74.76
22241;BME280;11289;52.524;13.694;2023-01-16T00:59:49;99434.13;;;3.94;74.21
22241;BME280;11289;52.524;13.694;2023-01-16T01:02:15;99432.16;;;3.94;74.43
22241;BME280;11289;52.524;13.694;2023-01-16T01:04:40;99440.09;;;3.96;74.37
22241;BME280;11289;52.524;13.694;2023-01-16T01:07:06;99437.03;;;3.97;75.04
22241;BME280;11289;52.524;13.694;2023-01-16T01:09:31;99435.13;;;3.98;74.32
22241;BME280;11289;52.524;13.694;2023-01-16T01:11:57;99423.94;;;3.94;74.42
22241;BME280;11289;52.524;13.694;2023-01-16T01:14:23;99432.16;;;3.94;74.80
22241;BME280;11289;52.524;13.694;2023-01-16T01:16:49;99426.69;;;3.94;74.43
22241;BME280;11289;52.524;13.694;2023-01-16T01:19:14;99432.06;;;3.99;74.44
22241;BME280;11289;52.524;13.694;2023-01-16T01:21:39;99429.91;;;3.96;74.35
22241;BME280;11289;52.524;13.694;2023-01-16T01:24:05;99418.72;;;3.84;74.25
22241;BME280;11289;52.524;13.694;2023-01-16T01:26:30;99430.53;;;3.93;74.07
22241;BME280;11289;52.524;13.694;2023-01-16T01:28:56;99441.53;;;3.93;74.06
22241;BME280;11289;52.524;13.694;2023-01-16T01:31:21;99440.03;;;3.87;74.27
22241;BME280;11289;52.524;13.694;2023-01-16T01:33:46;99424.63;;;3.77;74.42
22241;BME280;11289;52.524;13.694;2023-01-16T01:36:12;99425.31;;;3.83;74.16
22241;BME280;11289;52.524;13.694;2023-01-16T01:38:37;99416.91;;;3.79;73.95
22241;BME280;11289;52.524;13.694;2023-01-16T01:41:03;99433.44;;;3.88;74.42
22241;BME280;11289;52.524;13.694;2023-01-16T01:46:06;99413.97;;;3.76;74.16
22241;BME280;11289;52.524;13.694;2023-01-16T01:48:39;99440.47;;;3.80;74.47
22241;BME280;11289;52.524;13.694;2023-01-16T01:51:09;99422.72;;;3.78;74.01
22241;BME280;11289;52.524;13.694;2023-01-16T01:53:59;99422.84;;;3.73;74.55
22241;BME280;11289;52.524;13.694;2023-01-16T01:56:30;99422.66;;;3.69;74.78
22241;BME280;11289;52.524;13.694;2023-01-16T01:59:00;99417.81;;;3.66;74.90
22241;BME280;11289;52.524;13.694;2023-01-16T02:01:28;99420.66;;;3.61;74.81
22241;BME280;11289;52.524;13.694;2023-01-16T02:03:59;99416.97;;;3.65;74.89
22241;BME280;11289;52.524;13.694;2023-01-16T02:06:32;99416.28;;;3.60;75.00
22241;BME280;11289;52.524;13.694;2023-01-16T02:09:00;99422.00;;;3.63;75.43
22241;BME280;11289;52.524;13.694;2023-01-16T02:11:40;99422.78;;;3.64;75.25
22241;BME280;11289;52.524;13.694;2023-01-16T02:14:12;99405.16;;;3.56;75.31
22241;BME280;11289;52.524;13.694;2023-01-16T02:16:38;99402.41;;;3.56;75.65
22241;BME280;11289;52.524;13.694;2023-01-16T02:37:02;99392.28;;;3.65;75.92
22241;BME280;11289;52.524;13.694;2023-01-16T02:45:04;99392.78;;;3.68;76.28
22241;BME280;11289;52.524;13.694;2023-01-16T02:53:22;99380.19;;;3.66;76.17
22241;BME280;11289;52.524;13.694;2023-01-16T02:55:55;99386.16;;;3.69;76.43
22241;BME280;11289;52.524;13.694;2023-01-16T02:58:24;99369.50;;;3.65;76.44
22241;BME280;11289;52.524;13.694;2023-01-16T03:00:59;99364.50;;;3.67;76.22
22241;BME280;11289;52.524;13.694;2023-01-16T03:14:27;99365.94;;;3.64;76.11
22241;BME280;11289;52.524;13.694;2023-01-16T03:17:21;99351.72;;;3.62;76.05
22241;BME280;11289;52.524;13.694;2023-01-16T03:23:15;99354.31;;;3.59;76.79
22241;BME280;11289;52.524;13.694;2023-01-16T03:26:36;99350.75;;;3.58;76.70
22241;BME280;11289;52.524;13.694;2023-01-16T03:29:17;99334.41;;;3.53;76.56
22241;BME280;11289;52.524;13.694;2023-01-16T03:31:54;99350.25;;;3.56;76.86
22241;BME280;11289;52.524;13.694;2023-01-16T03:37:05;99333.28;;;3.54;76.85
22241;BME280;11289;52.524;13.694;2023-01-16T03:39:37;99331.03;;;3.56;76.87
22241;BME280;11289;52.524;13.694;2023-01-16T03:42:10;99326.34;;;3.57;77.09
22241;BME280;11289;52.524;13.694;2023-01-16T03:44:40;99314.91;;;3.55;76.94
22241;BME280;11289;52.524;13.694;2023-01-16T03:47:10;99320.69;;;3.53;76.86
22241;BME280;11289;52.524;13.694;2023-01-16T03:49:40;99323.13;;;3.55;77.11
22241;BME280;11289;52.524;13.694;2023-01-16T03:52:12;99317.97;;;3.53;76.92
22241;BME280;11289;52.524;13.694;2023-01-16T03:54:46;99312.94;;;3.55;77.11
22241;BME280;11289;52.524;13.694;2023-01-16T03:57:26;99308.91;;;3.53;77.49
22241;BME280;11289;52.524;13.694;2023-01-16T03:59:53;99303.59;;;3.56;77.11
22241;BME280;11289;52.524;13.694;2023-01-16T04:02:54;99305.38;;;3.61;77.55
22241;BME280;11289;52.524;13.694;2023-01-16T04:05:31;99294.84;;;3.54;76.89
22241;BME280;11289;52.524;13.694;2023-01-16T04:08:03;99298.91;;;3.57;76.73
22241;BME280;11289;52.524;13.694;2023-01-16T04:10:33;99291.16;;;3.50;76.88
22241;BME280;11289;52.524;13.694;2023-01-16T04:13:12;99284.97;;;3.44;76.82
22241;BME280;11289;52.524;13.694;2023-01-16T04:15:42;99289.84;;;3.47;76.99
22241;BME280;11289;52.524;13.694;2023-01-16T04:18:10;99282.25;;;3.44;77.28
22241;BME280;11289;52.524;13.694;2023-01-16T04:20:36;99295.13;;;3.44;76.88
22241;BME280;11289;52.524;13.694;2023-01-16T04:23:03;99283.16;;;3.40;77.09
22241;BME280;11289;52.524;13.694;2023-01-16T04:25:29;99278.31;;;3.37;76.92
22241;BME280;11289;52.524;13.694;2023-01-16T04:27:54;99273.81;;;3.41;77.55
22241;BME280;11289;52.524;13.694;2023-01-16T04:30:19;99261.84;;;3.37;77.41
22241;BME280;11289;52.524;13.694;2023-01-16T04:32:45;99250.84;;;3.28;77.59
22241;BME280;11289;52.524;13.694;2023-01-16T04:35:11;99264.09;;;3.35;77.44
22241;BME280;11289;52.524;13.694;2023-01-16T04:37:36;99262.78;;;3.32;77.32
22241;BME280;11289;52.524;13.694;2023-01-16T04:40:02;99255.03;;;3.25;77.16
22241;BME280;11289;52.524;13.694;2023-01-16T04:42:27;99244.97;;;3.21;77.36
22241;BME280;11289;52.524;13.694;2023-01-16T04:44:53;99238.34;;;3.13;77.59
22241;BME280;11289;52.524;13.694;2023-01-16T04:47:18;99239.78;;;3.10;77.33
22241;BME280;11289;52.524;13.694;2023-01-16T04:49:43;99217.94;;;2.96;77.35
22241;BME280;11289;52.524;13.694;2023-01-16T04:52:11;99221.97;;;2.99;77.55
22241;BME280;11289;52.524;13.694;2023-01-16T04:54:37;99215.81;;;2.93;77.95
22241;BME280;11289;52.524;13.694;2023-01-16T04:57:02;99225.00;;;2.97;78.07
22241;BME280;11289;52.524;13.694;2023-01-16T04:59:28;99199.59;;;2.83;78.25
22241;BME280;11289;52.524;13.694;2023-01-16T05:01:53;99204.50;;;2.86;77.98
22241;BME280;11289;52.524;13.694;2023-01-16T05:04:19;99201.88;;;2.81;78.40
22241;BME280;11289;52.524;13.694;2023-01-16T05:06:45;99195.53;;;2.72;78.32
22241;BME280;11289;52.524;13.694;2023-01-16T05:09:10;99212.19;;;2.84;78.57
22241;BME280;11289;52.524;13.694;2023-01-16T05:11:36;99221.69;;;2.78;78.61
22241;BME280;11289;52.524;13.694;2023-01-16T05:14:02;99217.00;;;2.78;78.62
22241;BME280;11289;52.524;13.694;2023-01-16T05:16:27;99217.47;;;2.72;78.44
22241;BME280;11289;52.524;13.694;2023-01-16T05:18:53;99207.41;;;2.67;78.66
22241;BME280;11289;52.524;13.694;2023-01-16T05:21:18;99203.06;;;2.66;78.82
22241;BME280;11289;52.524;13.694;2023-01-16T05:23:43;99209.66;;;2.65;79.03
22241;BME280;11289;52.524;13.694;2023-01-16T05:26:09;99208.53;;;2.66;79.08
22241;BME280;11289;52.524;13.694;2023-01-16T05:28:35;99213.34;;;2.60;79.71
22241;BME280;11289;52.524;13.694;2023-01-16T05:31:01;99201.38;;;2.56;79.56
22241;BME280;11289;52.524;13.694;2023-01-16T05:33:26;99208.97;;;2.59;79.54
22241;BME280;11289;52.524;13.694;2023-01-16T05:35:52;99203.63;;;2.54;79.53
22241;BME280;11289;52.524;13.694;2023-01-16T05:38:22;99208.97;;;2.59;79.83
22241;BME280;11289;52.524;13.694;2023-01-16T05:40:47;99197.53;;;2.57;80.06
22241;BME280;11289;52.524;13.694;2023-01-16T05:43:13;99183.56;;;2.45;80.00
22241;BME280;11289;52.524;13.694;2023-01-16T05:45:39;99203.81;;;2.58;80.29
22241;BME280;11289;52.524;13.694;2023-01-16T05:48:04;99188.00;;;2.55;80.41
22241;BME280;11289;52.524;13.694;2023-01-16T05:50:30;99201.59;;;2.60;80.32
22241;BME280;11289;52.524;13.694;2023-01-16T05:52:56;99197.00;;;2.55;80.52
22241;BME280;11289;52.524;13.694;2023-01-16T05:55:21;99200.69;;;2.51;80.35
22241;BME280;11289;52.524;13.694;2023-01-16T05:57:47;99219.94;;;2.59;80.63
22241;BME280;11289;52.524;13.694;2023-01-16T06:00:12;99201.38;;;2.56;80.34
22241;BME280;11289;52.524;13.694;2023-01-16T06:02:38;99198.94;;;2.55;80.76
22241;BME280;11289;52.524;13.694;2023-01-16T06:05:04;99197.22;;;2.59;80.55
22241;BME280;11289;52.524;13.694;2023-01-16T06:07:29;99185.56;;;2.53;80.46
22241;BME280;11289;52.524;13.694;2023-01-16T06:09:55;99181.09;;;2.57;80.60
22241;BME280;11289;52.524;13.694;2023-01-16T06:12:20;99171.88;;;2.53;80.16
22241;BME280;11289;52.524;13.694;2023-01-16T06:14:46;99177.03;;;2.55;80.13
22241;BME280;11289;52.524;13.694;2023-01-16T06:17:12;99182.41;;;2.60;80.02
22241;BME280;11289;52.524;13.694;2023-01-16T06:19:43;99178.03;;;2.59;80.15
22241;BME280;11289;52.524;13.694;2023-01-16T06:22:09;99175.09;;;2.55;80.36
22241;BME280;11289;52.524;13.694;2023-01-16T06:24:34;99165.75;;;2.56;80.32
22241;BME280;11289;52.524;13.694;2023-01-16T06:27:00;99156.75;;;2.56;80.45
22241;BME280;11289;52.524;13.694;2023-01-16T06:29:25;99148.84;;;2.54;80.20
22241;BME280;11289;52.524;13.694;2023-01-16T06:31:51;99161.91;;;2.57;80.18
22241;BME280;11289;52.524;13.694;2023-01-16T06:34:16;99157.06;;;2.54;79.74
22241;BME280;11289;52.524;13.694;2023-01-16T06:36:41;99166.56;;;2.57;80.00
22241;BME280;11289;52.524;13.694;2023-01-16T06:39:10;99163.22;;;2.60;80.11
22241;BME280;11289;52.524;13.694;2023-01-16T06:41:35;99159.78;;;2.54;79.84
22241;BME280;11289;52.524;13.694;2023-01-16T06:44:01;99163.81;;;2.57;79.93
22241;BME280;11289;52.524;13.694;2023-01-16T06:46:26;99146.53;;;2.48;79.74
22241;BME280;11289;52.524;13.694;2023-01-16T06:48:51;99157.53;;;2.56;79.62
22241;BME280;11289;52.524;13.694;2023-01-16T06:51:17;99147.84;;;2.50;79.78
22241;BME280;11289;52.524;13.694;2023-01-16T06:53:42;99146.22;;;2.49;80.01
22241;BME280;11289;52.524;13.694;2023-01-16T06:56:07;99150.25;;;2.52;79.83
22241;BME280;11289;52.524;13.694;2023-01-16T06:58:33;99143.41;;;2.40;80.18
22241;BME280;11289;52.524;13.694;2023-01-16T07:00:59;99136.00;;;2.41;79.78
22241;BME280;11289;52.524;13.694;2023-01-16T07:03:25;99131.81;;;2.43;79.68
22241;BME280;11289;52.524;13.694;2023-01-16T07:05:50;99139.41;;;2.47;79.54
22241;BME280;11289;52.524;13.694;2023-01-16T07:08:16;99145.22;;;2.45;79.77
22241;BME280;11289;52.524;13.694;2023-01-16T07:10:42;99124.72;;;2.42;79.79
22241;BME280;11289;52.524;13.694;2023-01-16T07:13:07;99126.66;;;2.42;79.64
22241;BME280;11289;52.524;13.694;2023-01-16T07:15:32;99140.25;;;2.47;79.76
22241;BME280;11289;52.524;13.694;2023-01-16T07:18:17;99139.09;;;2.48;79.06
22241;BME280;11289;52.524;13.694;2023-01-16T07:21:03;99133.47;;;2.44;79.23
22241;BME280;11289;52.524;13.694;2023-01-16T07:23:54;99126.19;;;2.40;79.44
22241;BME280;11289;52.524;13.694;2023-01-16T07:26:22;99122.63;;;2.39;79.11
22241;BME280;11289;52.524;13.694;2023-01-16T07:28:49;99134.88;;;2.42;79.68
22241;BME280;11289;52.524;13.694;2023-01-16T07:31:15;99123.94;;;2.42;79.17
22241;BME280;11289;52.524;13.694;2023-01-16T07:33:44;99128.78;;;2.45;79.70
22241;BME280;11289;52.524;13.694;2023-01-16T07:36:09;99113.97;;;2.46;79.93
22241;BME280;11289;52.524;13.694;2023-01-16T07:38:35;99123.97;;;2.51;79.18
22241;BME280;11289;52.524;13.694;2023-01-16T07:41:00;99107.81;;;2.40;79.49
22241;BME280;11289;52.524;13.694;2023-01-16T07:43:26;99114.44;;;2.48;79.13
22241;BME280;11289;52.524;13.694;2023-01-16T07:45:51;99113.34;;;2.49;79.70
22241;BME280;11289;52.524;13.694;2023-01-16T07:48:23;99131.94;;;2.61;78.97
22241;BME280;11289;52.524;13.694;2023-01-16T07:50:54;99115.69;;;2.65;79.34
22241;BME280;11289;52.524;13.694;2023-01-16T07:53:21;99114.06;;;2.64;79.03
22241;BME280;11289;52.524;13.694;2023-01-16T07:55:52;99105.16;;;2.58;79.17
22241;BME280;11289;52.524;13.694;2023-01-16T07:58:19;99096.00;;;2.63;78.64
22241;BME280;11289;52.524;13.694;2023-01-16T08:00:45;99105.56;;;2.74;78.80
22241;BME280;11289;52.524;13.694;2023-01-16T08:03:11;99096.56;;;2.73;78.71
22241;BME280;11289;52.524;13.694;2023-01-16T08:05:36;99084.75;;;2.73;78.38
22241;BME280;11289;52.524;13.694;2023-01-16T08:08:02;99077.16;;;2.70;78.26
22241;BME280;11289;52.524;13.694;2023-01-16T08:10:28;99091.22;;;2.77;77.83
22241;BME280;11289;52.524;13.694;2023-01-16T08:12:53;99079.63;;;2.80;77.88
22241;BME280;11289;52.524;13.694;2023-01-16T08:15:19;99085.13;;;2.80;77.79
22241;BME280;11289;52.524;13.694;2023-01-16T08:17:44;99086.94;;;2.85;77.66
22241;BME280;11289;52.524;13.694;2023-01-16T08:20:10;99081.44;;;2.85;76.92
22241;BME280;11289;52.524;13.694;2023-01-16T08:22:44;99071.56;;;2.75;77.07
22241;BME280;11289;52.524;13.694;2023-01-16T08:25:10;99070.94;;;2.78;76.88
22241;BME280;11289;52.524;13.694;2023-01-16T08:27:36;99060.72;;;2.70;77.24
22241;BME280;11289;52.524;13.694;2023-01-16T08:30:02;99063.03;;;2.76;76.97
22241;BME280;11289;52.524;13.694;2023-01-16T08:32:27;99054.28;;;2.74;77.22
22241;BME280;11289;52.524;13.694;2023-01-16T08:34:52;99061.59;;;2.79;76.81
22241;BME280;11289;52.524;13.694;2023-01-16T08:37:18;99054.47;;;2.78;77.08
22241;BME280;11289;52.524;13.694;2023-01-16T08:39:43;99049.81;;;2.78;77.42
22241;BME280;11289;52.524;13.694;2023-01-16T08:42:08;99053.72;;;2.86;77.46
22241;BME280;11289;52.524;13.694;2023-01-16T08:44:52;99036.13;;;2.87;77.21
22241;BME280;11289;52.524;13.694;2023-01-16T08:47:36;99026.16;;;2.91;77.33
22241;BME280;11289;52.524;13.694;2023-01-16T08:50:41;99016.97;;;2.96;77.41
22241;BME280;11289;52.524;13.694;2023-01-16T08:53:26;99007.16;;;3.04;76.64
22241;BME280;11289;52.524;13.694;2023-01-16T08:55:51;99009.06;;;3.03;76.66
22241;BME280;11289;52.524;13.694;2023-01-16T08:58:16;99002.94;;;3.06;76.54
22241;BME280;11289;52.524;13.694;2023-01-16T09:00:46;99007.00;;;3.09;76.70
22241;BME280;11289;52.524;13.694;2023-01-16T09:03:11;98999.28;;;3.11;76.14
22241;BME280;11289;52.524;13.694;2023-01-16T09:05:37;98983.94;;;3.10;75.73
22241;BME280;11289;52.524;13.694;2023-01-16T09:08:02;98991.06;;;3.28;76.97
22241;BME280;11289;52.524;13.694;2023-01-16T09:10:28;98981.88;;;3.42;76.66
22241;BME280;11289;52.524;13.694;2023-01-16T09:12:55;98964.59;;;3.50;75.44
22241;BME280;11289;52.524;13.694;2023-01-16T09:15:38;98972.94;;;3.80;75.17
22241;BME280;11289;52.524;13.694;2023-01-16T09:18:04;98951.75;;;3.89;74.28
22241;BME280;11289;52.524;13.694;2023-01-16T09:20:29;98951.25;;;4.05;73.22
22241;BME280;11289;52.524;13.694;2023-01-16T09:22:59;98952.81;;;4.23;72.63
22241;BME280;11289;52.524;13.694;2023-01-16T09:25:26;98953.72;;;4.45;72.64
22241;BME280;11289;52.524;13.694;2023-01-16T09:27:51;98933.88;;;4.60;70.49
22241;BME280;11289;52.524;13.694;2023-01-16T09:30:17;98943.00;;;4.82;71.97
22241;BME280;11289;52.524;13.694;2023-01-16T09:32:44;98935.28;;;4.96;69.56
22241;BME280;11289;52.524;13.694;2023-01-16T09:35:10;98940.50;;;5.19;69.25
22241;BME280;11289;52.524;13.694;2023-01-16T09:37:35;98925.13;;;5.18;68.21
22241;BME280;11289;52.524;13.694;2023-01-16T09:40:00;98928.56;;;5.36;67.98
22241;BME280;11289;52.524;13.694;2023-01-16T09:42:46;98919.53;;;5.48;67.82
22241;BME280;11289;52.524;13.694;2023-01-16T09:45:34;98920.06;;;5.74;67.83
22241;BME280;11289;52.524;13.694;2023-01-16T09:48:04;98915.06;;;5.89;65.96
22241;BME280;11289;52.524;13.694;2023-01-16T09:50:42;98920.91;;;6.08;65.86
22241;BME280;11289;52.524;13.694;2023-01-16T09:53:18;98906.22;;;6.29;65.14
22241;BME280;11289;52.524;13.694;2023-01-16T09:56:04;98897.16;;;6.41;64.67
22241;BME280;11289;52.524;13.694;2023-01-16T09:58:58;98899.09;;;6.53;61.73
22241;BME280;11289;52.524;13.694;2023-01-16T10:01:33;98888.16;;;6.56;62.98
22241;BME280;11289;52.524;13.694;2023-01-16T10:07:15;98889.41;;;6.96;61.95
22241;BME280;11289;52.524;13.694;2023-01-16T10:12:36;98881.50;;;7.23;61.31
22241;BME280;11289;52.524;13.694;2023-01-16T10:29:23;98847.97;;;7.81;58.84
22241;BME280;11289;52.524;13.694;2023-01-16T10:34:28;98830.50;;;7.93;58.34
22241;BME280;11289;52.524;13.694;2023-01-16T10:36:56;98831.91;;;8.18;58.04
22241;BME280;11289;52.524;13.694;2023-01-16T10:39:28;98821.66;;;8.19;55.47
22241;BME280;11289;52.524;13.694;2023-01-16T10:42:00;98814.91;;;8.16;56.32
22241;BME280;11289;52.524;13.694;2023-01-16T10:47:49;98808.47;;;8.28;55.26
22241;BME280;11289;52.524;13.694;2023-01-16T10:50:33;98800.53;;;8.27;55.41
22241;BME280;11289;52.524;13.694;2023-01-16T10:53:00;98794.91;;;8.23;56.15
22241;BME280;11289;52.524;13.694;2023-01-16T10:55:25;98790.78;;;8.33;56.44
22241;BME280;11289;52.524;13.694;2023-01-16T10:57:57;98779.47;;;8.38;55.84
22241;BME280;11289;52.524;13.694;2023-01-16T11:00:27;98768.03;;;8.40;54.74
22241;BME280;11289;52.524;13.694;2023-01-16T11:03:00;98762.25;;;8.45;54.95
22241;BME280;11289;52.524;13.694;2023-01-16T11:05:29;98767.13;;;8.51;55.02
22241;BME280;11289;52.524;13.694;2023-01-16T11:10:32;98755.41;;;8.58;54.71
22241;BME280;11289;52.524;13.694;2023-01-16T11:12:57;98751.50;;;8.59;54.85
22241;BME280;11289;52.524;13.694;2023-01-16T11:16:00;98737.91;;;8.70;54.96
22241;BME280;11289;52.524;13.694;2023-01-16T11:18:44;98730.59;;;8.62;53.85
22241;BME280;11289;52.524;13.694;2023-01-16T11:21:30;98727.84;;;8.62;54.43
22241;BME280;11289;52.524;13.694;2023-01-16T11:24:13;98716.97;;;8.73;55.10
22241;BME280;11289;52.524;13.694;2023-01-16T11:26:41;98711.59;;;8.80;54.85
22241;BME280;11289;52.524;13.694;2023-01-16T11:29:16;98707.38;;;8.86;53.80
22241;BME280;11289;52.524;13.694;2023-01-16T11:31:48;98691.72;;;8.74;53.84
22241;BME280;11289;52.524;13.694;2023-01-16T11:34:18;98695.34;;;8.78;53.48
22241;BME280;11289;52.524;13.694;2023-01-16T11:36:44;98687.56;;;8.84;54.13
22241;BME280;11289;52.524;13.694;2023-01-16T11:39:19;98681.38;;;8.91;54.24
22241;BME280;11289;52.524;13.694;2023-01-16T11:41:51;98683.78;;;8.92;52.38
22241;BME280;11289;52.524;13.694;2023-01-16T11:44:22;98673.31;;;8.82;53.81
22241;BME280;11289;52.524;13.694;2023-01-16T11:47:12;98663.34;;;8.77;53.70
22241;BME280;11289;52.524;13.694;2023-01-16T11:49:46;98650.91;;;8.67;53.83
22241;BME280;11289;52.524;13.694;2023-01-16T11:52:17;98650.91;;;8.67;54.08
22241;BME280;11289;52.524;13.694;2023-01-16T11:55:05;98636.13;;;8.60;54.63
22241;BME280;11289;52.524;13.694;2023-01-16T12:00:20;98639.09;;;8.31;54.25
22241;BME280;11289;52.524;13.694;2023-01-16T12:05:54;98627.94;;;8.08;54.24
22241;BME280;11289;52.524;13.694;2023-01-16T12:11:04;98626.69;;;7.86;55.23
22241;BME280;11289;52.524;13.694;2023-01-16T12:13:43;98615.91;;;7.81;55.52
22241;BME280;11289;52.524;13.694;2023-01-16T12:38:23;98564.28;;;6.98;56.16
22241;BME280;11289;52.524;13.694;2023-01-16T12:41:14;98548.44;;;6.95;57.81
22241;BME280;11289;52.524;13.694;2023-01-16T12:44:18;98548.00;;;6.93;57.33
22241;BME280;11289;52.524;13.694;2023-01-16T12:50:01;98529.56;;;6.81;57.95
22241;BME280;11289;52.524;13.694;2023-01-16T12:55:29;98529.44;;;6.74;58.76
22241;BME280;11289;52.524;13.694;2023-01-16T12:58:14;98503.72;;;6.70;59.15
22241;BME280;11289;52.524;13.694;2023-01-16T13:00:49;98513.50;;;6.67;59.59
22241;BME280;11289;52.524;13.694;2023-01-16T13:05:53;98495.16;;;6.59;59.60
22241;BME280;11289;52.524;13.694;2023-01-16T13:09:08;98465.13;;;6.54;59.78
22241;BME280;11289;52.524;13.694;2023-01-16T13:11:28;98469.56;;;6.58;59.36
22241;BME280;11289;52.524;13.694;2023-01-16T13:14:14;98453.63;;;6.52;59.35
22241;BME280;11289;52.524;13.694;2023-01-16T13:16:48;98447.69;;;6.50;59.29
22241;BME280;11289;52.524;13.694;2023-01-16T13:19:21;98442.59;;;6.52;59.97
22241;BME280;11289;52.524;13.694;2023-01-16T13:21:59;98438.16;;;6.47;59.30
22241;BME280;11289;52.524;13.694;2023-01-16T13:24:55;98440.38;;;6.41;60.04
22241;BME280;11289;52.524;13.694;2023-01-16T13:27:40;98431.69;;;6.39;60.21
22241;BME280;11289;52.524;13.694;2023-01-16T13:30:15;98448.47;;;6.34;59.71
22241;BME280;11289;52.524;13.694;2023-01-16T13:32:46;98438.63;;;6.33;59.87
22241;BME280;11289;52.524;13.694;2023-01-16T13:35:21;98432.22;;;6.29;60.05
22241;BME280;11289;52.524;13.694;2023-01-16T13:37:52;98441.81;;;6.35;60.54
22241;BME280;11289;52.524;13.694;2023-01-16T13:40:49;98430.00;;;6.35;61.23
22241;BME280;11289;52.524;13.694;2023-01-16T13:43:27;98410.41;;;6.24;60.32
22241;BME280;11289;52.524;13.694;2023-01-16T13:46:13;98412.81;;;6.25;60.46
22241;BME280;11289;52.524;13.694;2023-01-16T13:48:38;98410.88;;;6.26;60.62
22241;BME280;11289;52.524;13.694;2023-01-16T13:51:14;98411.91;;;6.21;60.42
22241;BME280;11289;52.524;13.694;2023-01-16T13:53:41;98409.97;;;6.22;60.39
22241;BME280;11289;52.524;13.694;2023-01-16T13:56:13;98397.59;;;6.16;59.84
22241;BME280;11289;52.524;13.694;2023-01-16T13:58:42;98390.16;;;6.16;60.13
22241;BME280;11289;52.524;13.694;2023-01-16T14:01:31;98357.81;;;5.97;60.35
22241;BME280;11289;52.524;13.694;2023-01-16T14:06:57;98381.91;;;6.16;60.67
22241;BME280;11289;52.524;13.694;2023-01-16T14:10:17;98370.34;;;6.10;61.19
22241;BME280;11289;52.524;13.694;2023-01-16T14:21:23;98345.16;;;5.96;61.28
22241;BME280;11289;52.524;13.694;2023-01-16T14:23:57;98345.41;;;5.91;61.61
22241;BME280;11289;52.524;13.694;2023-01-16T14:29:35;98357.13;;;5.88;61.06
22241;BME280;11289;52.524;13.694;2023-01-16T14:32:03;98359.00;;;5.84;61.36
22241;BME280;11289;52.524;13.694;2023-01-16T14:34:39;98341.41;;;5.72;61.60
22241;BME280;11289;52.524;13.694;2023-01-16T14:37:29;98331.53;;;5.71;61.54
22241;BME280;11289;52.524;13.694;2023-01-16T14:42:46;98327.91;;;5.67;62.16
22241;BME280;11289;52.524;13.694;2023-01-16T14:45:33;98321.50;;;5.63;62.55
22241;BME280;11289;52.524;13.694;2023-01-16T14:53:59;98323.25;;;5.55;62.91
22241;BME280;11289;52.524;13.694;2023-01-16T14:56:47;98304.16;;;5.47;62.91
22241;BME280;11289;52.524;13.694;2023-01-16T15:07:45;98272.88;;;5.23;64.08
22241;BME280;11289;52.524;13.694;2023-01-16T15:12:53;98269.47;;;5.14;64.40
22241;BME280;11289;52.524;13.694;2023-01-16T15:15:24;98280.69;;;5.21;64.67
22241;BME280;11289;52.524;13.694;2023-01-16T15:17:53;98267.09;;;5.12;64.82
22241;BME280;11289;52.524;13.694;2023-01-16T15:20:41;98263.00;;;5.06;65.16
22241;BME280;11289;52.524;13.694;2023-01-16T15:23:37;98277.09;;;5.04;65.00
22241;BME280;11289;52.524;13.694;2023-01-16T15:31:08;98264.28;;;4.96;65.65
22241;BME280;11289;52.524;13.694;2023-01-16T15:33:35;98261.59;;;4.84;65.53
22241;BME280;11289;52.524;13.694;2023-01-16T15:36:39;98271.91;;;4.87;65.54
22241;BME280;11289;52.524;13.694;2023-01-16T15:41:37;98272.94;;;4.82;65.93
22241;BME280;11289;52.524;13.694;2023-01-16T15:44:23;98262.19;;;4.77;66.10
22241;BME280;11289;52.524;13.694;2023-01-16T15:47:33;98264.16;;;4.77;65.97
22241;BME280;11289;52.524;13.694;2023-01-16T15:50:16;98266.78;;;4.73;66.57
22241;BME280;11289;52.524;13.694;2023-01-16T15:52:45;98251.34;;;4.68;66.79
22241;BME280;11289;52.524;13.694;2023-01-16T15:57:37;98250.44;;;4.64;66.77
22241;BME280;11289;52.524;13.694;2023-01-16T16:00:03;98228.38;;;4.48;66.63
22241;BME280;11289;52.524;13.694;2023-01-16T16:02:29;98236.47;;;4.57;66.26